Time;durP1;ratioP1;P1;durP2;ratioP2;P2;SDS_P1;SDS_P2;PMS_P1;PMS_P2;Temp;Humidity;BMP_temperature;BMP_pressure;BME280_temperature;BME280_humidity;BME280_pressure;Samples;Min_cycle;Max_cycle;Signal;HPM_P1;HPM_P2
2023/11/04 00:00:40;;;;;;;;;;;5.30;99.90;;;;;;21321866;27;19978;-80
2023/11/04 00:10:41;;;;;;;;;;;5.50;99.90;;;;;;21302106;27;19911;-80
2023/11/04 00:20:42;;;;;;;;;;;5.50;99.90;;;;;;21285012;27;19966;-80
2023/11/04 00:30:42;;;;;;;;;;;5.40;99.90;;;;;;21305907;27;19915;-80
2023/11/04 00:40:44;;;;;;;;;;;5.30;99.90;;;;;;21326545;27;19915;-79
2023/11/04 00:50:44;;;;;;;;;;;5.10;99.90;;;;;;21342219;27;20512;-80
2023/11/04 01:00:45;;;;;;;;;;;5.20;99.90;;;;;;21349853;27;19930;-79
2023/11/04 01:10:47;;;;;;;;;;;5.20;99.90;;;;;;21365818;27;19911;-79
2023/11/04 01:20:47;;;;;;;;;;;5.00;99.90;;;;;;21306498;27;19922;-80
2023/11/04 01:30:48;;;;;;;;;;;4.80;99.90;;;;;;21306705;27;19943;-79
2023/11/04 01:40:49;;;;;;;;;;;4.80;99.90;;;;;;21300155;27;19915;-79
2023/11/04 01:50:50;;;;;;;;;;;4.80;99.90;;;;;;21299639;27;19919;-80
2023/11/04 02:00:51;;;;;;;;;;;4.90;99.90;;;;;;21302143;27;19915;-79
2023/11/04 02:10:51;;;;;;;;;;;4.90;99.90;;;;;;21294512;27;20311;-80
2023/11/04 02:20:52;;;;;;;;;;;5.00;99.90;;;;;;21301939;27;19936;-80
2023/11/04 02:30:53;;;;;;;;;;;5.20;99.90;;;;;;21261998;27;19915;-80
2023/11/04 02:40:54;;;;;;;;;;;5.10;99.90;;;;;;21218245;27;19962;-79
2023/11/04 02:50:54;;;;;;;;;;;5.10;99.90;;;;;;21213714;27;20462;-80
2023/11/04 03:00:56;;;;;;;;;;;5.10;99.90;;;;;;21216736;27;19937;-80
2023/11/04 03:10:57;;;;;;;;;;;5.10;99.90;;;;;;21210330;27;19922;-80
2023/11/04 03:20:58;;;;;;;;;;;5.20;99.90;;;;;;21214059;27;19915;-80
2023/11/04 03:30:59;;;;;;;;;;;5.30;99.90;;;;;;21213809;27;19915;-80
2023/11/04 03:40:59;;;;;;;;;;;5.30;99.90;;;;;;21209740;27;19922;-78
2023/11/04 03:51:00;;;;;;;;;;;5.20;99.90;;;;;;21209617;27;19919;-79
2023/11/04 04:01:02;;;;;;;;;;;5.00;99.90;;;;;;21208918;27;19916;-80
2023/11/04 04:11:03;;;;;;;;;;;4.90;99.90;;;;;;21209612;27;19972;-79
2023/11/04 04:21:05;;;;;;;;;;;4.60;99.90;;;;;;21212073;27;19919;-80
2023/11/04 04:31:05;;;;;;;;;;;4.30;99.90;;;;;;21285702;27;19914;-79
2023/11/04 04:41:08;;;;;;;;;;;3.90;99.90;;;;;;21382449;27;19984;-79
2023/11/04 04:51:09;;;;;;;;;;;4.00;99.90;;;;;;21380082;27;19911;-80
2023/11/04 05:01:19;;;;;;;;;;;4.10;99.90;;;;;;21386416;27;20362;-79
2023/11/04 05:11:20;;;;;;;;;;;3.80;99.90;;;;;;21384570;27;19950;-79
2023/11/04 05:21:23;;;;;;;;;;;3.70;99.90;;;;;;21383332;27;19942;-80
2023/11/04 05:31:23;;;;;;;;;;;4.00;99.90;;;;;;21305633;27;19916;-79
2023/11/04 05:41:24;;;;;;;;;;;4.00;99.90;;;;;;21210907;28;19912;-79
2023/11/04 05:51:25;;;;;;;;;;;3.80;99.90;;;;;;21209271;27;19912;-79
2023/11/04 06:01:26;;;;;;;;;;;4.10;99.90;;;;;;21234303;27;19920;-80
2023/11/04 06:11:28;;;;;;;;;;;4.10;99.90;;;;;;21221423;27;20219;-79
2023/11/04 06:21:29;;;;;;;;;;;3.80;99.90;;;;;;21227757;27;20263;-79
2023/11/04 06:31:30;;;;;;;;;;;3.60;99.90;;;;;;21232471;27;19986;-79
2023/11/04 06:41:31;;;;;;;;;;;4.10;99.90;;;;;;21232215;27;19941;-78
2023/11/04 06:51:31;;;;;;;;;;;4.40;99.90;;;;;;21241164;27;20448;-78
2023/11/04 07:01:32;;;;;;;;;;;4.90;99.90;;;;;;21213233;27;20012;-78
2023/11/04 07:11:33;;;;;;;;;;;5.20;99.90;;;;;;21218893;27;19919;-79
2023/11/04 07:21:36;;;;;;;;;;;4.90;99.90;;;;;;21210386;27;19912;-80
2023/11/04 07:31:37;;;;;;;;;;;4.90;99.90;;;;;;21245694;27;19923;-78
2023/11/04 07:41:41;;;;;;;;;;;6.40;99.90;;;;;;21288238;27;19915;-79
2023/11/04 07:51:41;;;;;;;;;;;7.00;99.90;;;;;;21283251;27;19915;-80
2023/11/04 08:01:42;;;;;;;;;;;7.50;99.90;;;;;;21284103;27;19926;-81
2023/11/04 08:11:43;;;;;;;;;;;8.10;99.90;;;;;;21272464;27;19915;-81
2023/11/04 08:21:44;;;;;;;;;;;8.40;99.90;;;;;;21284339;27;19919;-82
2023/11/04 08:31:44;;;;;;;;;;;8.50;99.90;;;;;;21279476;27;20460;-79
2023/11/04 08:41:46;;;;;;;;;;;7.90;99.90;;;;;;21262312;27;19911;-79
2023/11/04 08:51:47;;;;;;;;;;;8.80;99.90;;;;;;21267885;27;20029;-80
2023/11/04 09:01:47;;;;;;;;;;;8.50;99.90;;;;;;21269324;27;19916;-81
2023/11/04 09:11:48;;;;;;;;;;;8.50;99.90;;;;;;21257830;27;20297;-81
2023/11/04 09:21:49;;;;;;;;;;;8.60;99.90;;;;;;21256064;27;19911;-80
2023/11/04 09:31:49;;;;;;;;;;;8.60;99.90;;;;;;21217115;27;19982;-79
2023/11/04 09:41:53;;;;;;;;;;;8.70;99.90;;;;;;21165823;28;19919;-79
2023/11/04 09:51:56;;;;;;;;;;;8.70;99.90;;;;;;21183979;28;19916;-80
2023/11/04 10:01:57;;;;;;;;;;;8.30;99.90;;;;;;21186641;28;19933;-80
2023/11/04 10:12:01;;;;;;;;;;;8.20;99.90;;;;;;21176568;28;19919;-81
2023/11/04 10:22:01;;;;;;;;;;;7.80;99.90;;;;;;21174946;27;19964;-78
2023/11/04 10:32:03;;;;;;;;;;;7.80;99.90;;;;;;21283323;27;19958;-79
2023/11/04 10:42:07;;;;;;;;;;;7.70;99.90;;;;;;21316210;27;20281;-81
2023/11/04 10:52:09;;;;;;;;;;;7.90;99.90;;;;;;21353652;27;19926;-78
2023/11/04 11:02:11;;;;;;;;;;;8.00;99.90;;;;;;21353181;27;19915;-81
2023/11/04 11:12:16;;;;;;;;;;;8.20;99.90;;;;;;21286366;27;19960;-76
2023/11/04 11:22:24;;;;;;;;;;;8.40;99.90;;;;;;21331989;27;20298;-77
2023/11/04 11:32:36;;;;;;;;;;;8.30;99.90;;;;;;21348103;27;19915;-77
2023/11/04 11:42:37;;;;;;;;;;;8.50;99.90;;;;;;21362722;27;19917;-80
2023/11/04 11:52:38;;;;;;;;;;;8.60;99.90;;;;;;21353322;27;19915;-78
2023/11/04 12:02:39;;;;;;;;;;;8.30;99.90;;;;;;21323646;27;20374;-77
2023/11/04 12:12:44;;;;;;;;;;;8.50;99.90;;;;;;21316355;27;19915;-77
2023/11/04 12:22:47;;;;;;;;;;;8.40;99.90;;;;;;21319558;27;19918;-78
2023/11/04 12:32:50;;;;;;;;;;;8.10;99.90;;;;;;21300401;27;19926;-77
2023/11/04 12:42:52;;;;;;;;;;;8.10;99.90;;;;;;21321513;27;20006;-79
2023/11/04 12:52:53;;;;;;;;;;;8.00;99.90;;;;;;21327918;27;19938;-76
2023/11/04 13:02:53;;;;;;;;;;;7.70;99.90;;;;;;21338479;27;19911;-77
2023/11/04 13:12:54;;;;;;;;;;;7.50;99.90;;;;;;21314284;27;19975;-79
2023/11/04 13:22:55;;;;;;;;;;;7.50;99.90;;;;;;21340124;27;19911;-77
2023/11/04 13:32:56;;;;;;;;;;;7.20;99.90;;;;;;21343405;27;19955;-79
2023/11/04 13:42:57;;;;;;;;;;;7.00;99.90;;;;;;21341155;27;20373;-80
2023/11/04 13:52:58;;;;;;;;;;;6.90;99.90;;;;;;21317983;27;19922;-78
2023/11/04 14:02:59;;;;;;;;;;;7.00;99.90;;;;;;21336878;27;19922;-79
2023/11/04 14:13:00;;;;;;;;;;;7.00;99.90;;;;;;21350337;27;19915;-78
2023/11/04 14:23:00;;;;;;;;;;;6.90;99.90;;;;;;21337530;27;19932;-78
2023/11/04 14:33:04;;;;;;;;;;;6.70;99.90;;;;;;21354428;27;19926;-78
2023/11/04 14:43:05;;;;;;;;;;;6.60;99.90;;;;;;21340624;27;19910;-81
2023/11/04 14:53:06;;;;;;;;;;;6.70;99.90;;;;;;21323553;27;19931;-78
2023/11/04 15:03:07;;;;;;;;;;;6.60;99.90;;;;;;21351818;27;20002;-79
2023/11/04 15:13:08;;;;;;;;;;;6.60;99.90;;;;;;21359327;27;20354;-79
2023/11/04 15:23:09;;;;;;;;;;;6.60;99.90;;;;;;21356489;27;19915;-78
2023/11/04 15:33:09;;;;;;;;;;;6.80;99.90;;;;;;21339706;27;19915;-80
2023/11/04 15:43:10;;;;;;;;;;;6.90;99.90;;;;;;21343484;27;19919;-79
2023/11/04 15:53:11;;;;;;;;;;;7.00;99.90;;;;;;21336918;27;20014;-77
2023/11/04 16:03:12;;;;;;;;;;;7.10;99.90;;;;;;21342851;27;19910;-79
2023/11/04 16:13:12;;;;;;;;;;;7.10;99.90;;;;;;21333319;27;20358;-78
2023/11/04 16:23:13;;;;;;;;;;;7.30;99.90;;;;;;21336259;27;19911;-80
2023/11/04 16:33:15;;;;;;;;;;;7.50;99.90;;;;;;21313363;27;19915;-80
2023/11/04 16:43:16;;;;;;;;;;;7.40;99.90;;;;;;21343710;27;19915;-79
2023/11/04 16:53:17;;;;;;;;;;;7.40;99.90;;;;;;21314600;27;20473;-79
2023/11/04 17:03:17;;;;;;;;;;;7.50;99.90;;;;;;21337585;27;20352;-79
2023/11/04 17:13:20;;;;;;;;;;;7.80;99.90;;;;;;21337281;27;20370;-78
2023/11/04 17:23:21;;;;;;;;;;;7.70;99.90;;;;;;21342411;27;20362;-80
2023/11/04 17:33:22;;;;;;;;;;;7.70;99.90;;;;;;21355062;27;19922;-78
2023/11/04 17:43:24;;;;;;;;;;;7.60;99.90;;;;;;21351169;27;19911;-78
2023/11/04 17:53:24;;;;;;;;;;;7.90;99.90;;;;;;21347192;27;19915;-78
2023/11/04 18:03:25;;;;;;;;;;;8.10;99.90;;;;;;21356549;27;19918;-79
2023/11/04 18:13:26;;;;;;;;;;;8.10;99.90;;;;;;21356817;27;19958;-80
2023/11/04 18:23:27;;;;;;;;;;;8.70;99.90;;;;;;21331781;27;19919;-79
2023/11/04 18:33:28;;;;;;;;;;;8.50;99.90;;;;;;21340461;27;19915;-80
2023/11/04 18:43:28;;;;;;;;;;;8.20;99.90;;;;;;21366298;27;19915;-78
2023/11/04 18:53:29;;;;;;;;;;;8.00;99.90;;;;;;21368007;27;19919;-79
2023/11/04 19:03:30;;;;;;;;;;;8.10;99.90;;;;;;21329932;27;20278;-79
2023/11/04 19:13:30;;;;;;;;;;;8.20;99.90;;;;;;21363320;27;19923;-79
2023/11/04 19:23:31;;;;;;;;;;;8.00;99.90;;;;;;21353201;27;20014;-79
2023/11/04 19:33:33;;;;;;;;;;;7.90;99.90;;;;;;21357358;27;19942;-78
2023/11/04 19:43:35;;;;;;;;;;;7.90;99.90;;;;;;21381853;27;20029;-81
2023/11/04 19:53:36;;;;;;;;;;;8.20;99.90;;;;;;21332253;27;19915;-79
2023/11/04 20:03:37;;;;;;;;;;;8.40;99.90;;;;;;21371047;27;19993;-81
2023/11/04 20:13:37;;;;;;;;;;;8.30;99.90;;;;;;21350239;27;19948;-80
2023/11/04 20:23:38;;;;;;;;;;;8.30;99.90;;;;;;21363790;27;20259;-80
2023/11/04 20:33:44;;;;;;;;;;;8.30;99.90;;;;;;21376659;27;19919;-79
2023/11/04 20:43:45;;;;;;;;;;;8.70;99.90;;;;;;21353532;27;19974;-80
2023/11/04 20:53:45;;;;;;;;;;;8.70;99.90;;;;;;21384612;27;19922;-78
2023/11/04 21:03:46;;;;;;;;;;;8.90;99.90;;;;;;21365672;27;19932;-79
2023/11/04 21:13:47;;;;;;;;;;;8.70;99.90;;;;;;21375055;27;19915;-78
2023/11/04 21:23:48;;;;;;;;;;;8.70;99.90;;;;;;21379967;27;19911;-80
2023/11/04 21:33:48;;;;;;;;;;;8.80;99.90;;;;;;21362270;27;19915;-80
2023/11/04 21:43:49;;;;;;;;;;;8.80;99.90;;;;;;21361684;27;19915;-80
2023/11/04 21:53:50;;;;;;;;;;;8.60;99.90;;;;;;21374092;27;19922;-80
2023/11/04 22:03:53;;;;;;;;;;;8.30;99.90;;;;;;21369173;27;19984;-81
2023/11/04 22:13:53;;;;;;;;;;;8.10;99.90;;;;;;21356102;27;19926;-80
2023/11/04 22:23:54;;;;;;;;;;;8.40;99.90;;;;;;21373580;27;19911;-80
2023/11/04 22:33:55;;;;;;;;;;;8.50;99.90;;;;;;21367853;27;19960;-79
2023/11/04 22:43:55;;;;;;;;;;;8.70;99.90;;;;;;21365411;27;19950;-81
2023/11/04 22:53:56;;;;;;;;;;;9.10;99.90;;;;;;21347184;27;19914;-80
2023/11/04 23:03:57;;;;;;;;;;;9.20;99.90;;;;;;21360778;27;19918;-79
2023/11/04 23:13:58;;;;;;;;;;;9.10;99.90;;;;;;21370576;27;19915;-80
2023/11/04 23:23:58;;;;;;;;;;;8.90;99.90;;;;;;21362140;27;19953;-79
2023/11/04 23:33:59;;;;;;;;;;;8.60;99.90;;;;;;21358481;27;19971;-79
2023/11/04 23:44:00;;;;;;;;;;;8.30;99.90;;;;;;21363491;27;19923;-80
2023/11/04 23:54:00;;;;;;;;;;;8.50;99.90;;;;;;21360808;27;19915;-79
